sensor_id;sensor_type;location;lat;lon;timestamp;P1;durP1;ratioP1;P2;durP2;ratioP2
70532;SDS011;58088;51.186;17.130;2023-03-14T00:01:16;8.10;;;3.80;;
70532;SDS011;58088;51.186;17.130;2023-03-14T00:03:43;9.10;;;3.70;;
70532;SDS011;58088;51.186;17.130;2023-03-14T00:06:10;8.10;;;3.60;;
70532;SDS011;58088;51.186;17.130;2023-03-14T00:08:37;8.20;;;3.30;;
70532;SDS011;58088;51.186;17.130;2023-03-14T00:11:09;7.80;;;3.30;;
70532;SDS011;58088;51.186;17.130;2023-03-14T00:13:37;7.80;;;3.40;;
70532;SDS011;58088;51.186;17.130;2023-03-14T00:16:11;8.10;;;3.90;;
70532;SDS011;58088;51.186;17.130;2023-03-14T00:18:38;10.90;;;4.60;;
70532;SDS011;58088;51.186;17.130;2023-03-14T00:21:06;9.10;;;4.50;;
70532;SDS011;58088;51.186;17.130;2023-03-14T00:23:36;10.40;;;3.90;;
70532;SDS011;58088;51.186;17.130;2023-03-14T00:26:06;7.10;;;3.10;;
70532;SDS011;58088;51.186;17.130;2023-03-14T00:28:35;7.50;;;3.20;;
70532;SDS011;58088;51.186;17.130;2023-03-14T00:31:06;8.30;;;3.00;;
70532;SDS011;58088;51.186;17.130;2023-03-14T00:33:34;7.30;;;2.90;;
70532;SDS011;58088;51.186;17.130;2023-03-14T00:36:07;10.50;;;4.90;;
70532;SDS011;58088;51.186;17.130;2023-03-14T00:38:38;14.10;;;5.60;;
70532;SDS011;58088;51.186;17.130;2023-03-14T00:41:10;13.20;;;6.20;;
70532;SDS011;58088;51.186;17.130;2023-03-14T00:43:39;9.70;;;4.80;;
70532;SDS011;58088;51.186;17.130;2023-03-14T00:46:05;10.40;;;4.70;;
70532;SDS011;58088;51.186;17.130;2023-03-14T00:48:32;9.10;;;3.80;;
70532;SDS011;58088;51.186;17.130;2023-03-14T00:51:01;11.40;;;4.60;;
70532;SDS011;58088;51.186;17.130;2023-03-14T00:53:28;9.00;;;4.20;;
70532;SDS011;58088;51.186;17.130;2023-03-14T00:55:55;10.50;;;4.80;;
70532;SDS011;58088;51.186;17.130;2023-03-14T00:58:21;11.30;;;5.10;;
70532;SDS011;58088;51.186;17.130;2023-03-14T01:00:47;8.30;;;3.60;;
70532;SDS011;58088;51.186;17.130;2023-03-14T01:03:14;11.10;;;3.70;;
70532;SDS011;58088;51.186;17.130;2023-03-14T01:05:42;13.00;;;5.70;;
70532;SDS011;58088;51.186;17.130;2023-03-14T01:08:08;13.80;;;6.30;;
70532;SDS011;58088;51.186;17.130;2023-03-14T01:10:38;12.20;;;5.80;;
70532;SDS011;58088;51.186;17.130;2023-03-14T01:13:06;12.60;;;5.80;;
70532;SDS011;58088;51.186;17.130;2023-03-14T01:15:33;10.10;;;4.70;;
70532;SDS011;58088;51.186;17.130;2023-03-14T01:18:02;11.70;;;4.40;;
70532;SDS011;58088;51.186;17.130;2023-03-14T01:20:29;11.60;;;3.40;;
70532;SDS011;58088;51.186;17.130;2023-03-14T01:22:55;10.40;;;4.20;;
70532;SDS011;58088;51.186;17.130;2023-03-14T01:25:21;9.80;;;3.80;;
70532;SDS011;58088;51.186;17.130;2023-03-14T01:27:48;9.30;;;3.90;;
70532;SDS011;58088;51.186;17.130;2023-03-14T01:30:14;12.60;;;4.80;;
70532;SDS011;58088;51.186;17.130;2023-03-14T01:32:41;12.10;;;4.60;;
70532;SDS011;58088;51.186;17.130;2023-03-14T01:35:07;9.50;;;3.80;;
70532;SDS011;58088;51.186;17.130;2023-03-14T01:37:34;8.90;;;3.70;;
70532;SDS011;58088;51.186;17.130;2023-03-14T01:40:00;9.10;;;3.50;;
70532;SDS011;58088;51.186;17.130;2023-03-14T01:42:27;10.60;;;4.00;;
70532;SDS011;58088;51.186;17.130;2023-03-14T01:44:59;8.80;;;3.60;;
70532;SDS011;58088;51.186;17.130;2023-03-14T01:47:27;9.70;;;4.00;;
70532;SDS011;58088;51.186;17.130;2023-03-14T01:50:05;9.60;;;4.10;;
70532;SDS011;58088;51.186;17.130;2023-03-14T01:52:44;11.40;;;4.40;;
70532;SDS011;58088;51.186;17.130;2023-03-14T01:55:23;10.40;;;4.40;;
70532;SDS011;58088;51.186;17.130;2023-03-14T01:57:59;11.10;;;4.90;;
70532;SDS011;58088;51.186;17.130;2023-03-14T02:00:29;9.50;;;4.50;;
70532;SDS011;58088;51.186;17.130;2023-03-14T02:03:00;9.40;;;4.80;;
70532;SDS011;58088;51.186;17.130;2023-03-14T02:05:37;8.40;;;4.10;;
70532;SDS011;58088;51.186;17.130;2023-03-14T02:08:13;10.20;;;4.30;;
70532;SDS011;58088;51.186;17.130;2023-03-14T02:10:49;7.90;;;3.10;;
70532;SDS011;58088;51.186;17.130;2023-03-14T02:13:22;11.40;;;5.40;;
70532;SDS011;58088;51.186;17.130;2023-03-14T02:16:24;7.80;;;3.20;;
70532;SDS011;58088;51.186;17.130;2023-03-14T02:19:17;9.60;;;4.20;;
70532;SDS011;58088;51.186;17.130;2023-03-14T02:22:09;11.00;;;5.20;;
70532;SDS011;58088;51.186;17.130;2023-03-14T02:27:58;10.80;;;4.80;;
70532;SDS011;58088;51.186;17.130;2023-03-14T02:30:27;9.30;;;4.30;;
70532;SDS011;58088;51.186;17.130;2023-03-14T02:33:03;11.80;;;4.30;;
70532;SDS011;58088;51.186;17.130;2023-03-14T02:35:39;10.50;;;4.70;;
70532;SDS011;58088;51.186;17.130;2023-03-14T02:41:04;11.50;;;5.00;;
70532;SDS011;58088;51.186;17.130;2023-03-14T02:43:33;10.30;;;4.90;;
70532;SDS011;58088;51.186;17.130;2023-03-14T02:46:02;10.80;;;4.40;;
70532;SDS011;58088;51.186;17.130;2023-03-14T02:48:35;11.00;;;4.80;;
70532;SDS011;58088;51.186;17.130;2023-03-14T02:51:10;9.30;;;4.20;;
70532;SDS011;58088;51.186;17.130;2023-03-14T02:53:38;8.60;;;3.90;;
70532;SDS011;58088;51.186;17.130;2023-03-14T02:56:09;8.30;;;3.70;;
70532;SDS011;58088;51.186;17.130;2023-03-14T02:58:36;7.50;;;3.80;;
70532;SDS011;58088;51.186;17.130;2023-03-14T03:01:18;8.30;;;3.70;;
70532;SDS011;58088;51.186;17.130;2023-03-14T03:03:45;8.30;;;3.80;;
70532;SDS011;58088;51.186;17.130;2023-03-14T03:06:11;9.70;;;3.70;;
70532;SDS011;58088;51.186;17.130;2023-03-14T03:08:38;9.70;;;3.90;;
70532;SDS011;58088;51.186;17.130;2023-03-14T03:11:05;9.30;;;3.90;;
70532;SDS011;58088;51.186;17.130;2023-03-14T03:13:32;9.00;;;4.00;;
70532;SDS011;58088;51.186;17.130;2023-03-14T03:15:59;6.20;;;2.70;;
70532;SDS011;58088;51.186;17.130;2023-03-14T03:18:26;6.60;;;2.90;;
70532;SDS011;58088;51.186;17.130;2023-03-14T03:20:52;7.60;;;3.30;;
70532;SDS011;58088;51.186;17.130;2023-03-14T03:23:19;5.90;;;2.50;;
70532;SDS011;58088;51.186;17.130;2023-03-14T03:25:49;6.30;;;2.70;;
70532;SDS011;58088;51.186;17.130;2023-03-14T03:28:16;7.00;;;2.20;;
70532;SDS011;58088;51.186;17.130;2023-03-14T03:30:43;5.50;;;2.20;;
70532;SDS011;58088;51.186;17.130;2023-03-14T03:33:11;5.30;;;2.20;;
70532;SDS011;58088;51.186;17.130;2023-03-14T03:35:45;5.90;;;2.10;;
70532;SDS011;58088;51.186;17.130;2023-03-14T03:38:13;7.30;;;2.30;;
70532;SDS011;58088;51.186;17.130;2023-03-14T03:40:42;4.80;;;1.80;;
70532;SDS011;58088;51.186;17.130;2023-03-14T03:43:08;8.00;;;2.10;;
70532;SDS011;58088;51.186;17.130;2023-03-14T03:45:36;5.40;;;1.70;;
70532;SDS011;58088;51.186;17.130;2023-03-14T03:48:04;6.00;;;1.90;;
70532;SDS011;58088;51.186;17.130;2023-03-14T03:50:31;6.80;;;2.20;;
70532;SDS011;58088;51.186;17.130;2023-03-14T03:52:57;5.70;;;1.80;;
70532;SDS011;58088;51.186;17.130;2023-03-14T03:55:24;5.30;;;2.20;;
70532;SDS011;58088;51.186;17.130;2023-03-14T03:57:51;5.40;;;2.30;;
70532;SDS011;58088;51.186;17.130;2023-03-14T04:00:18;5.60;;;1.80;;
70532;SDS011;58088;51.186;17.130;2023-03-14T04:02:44;5.20;;;2.20;;
70532;SDS011;58088;51.186;17.130;2023-03-14T04:05:13;6.60;;;2.30;;
70532;SDS011;58088;51.186;17.130;2023-03-14T04:07:46;6.20;;;2.30;;
70532;SDS011;58088;51.186;17.130;2023-03-14T04:10:16;6.00;;;1.70;;
70532;SDS011;58088;51.186;17.130;2023-03-14T04:12:56;5.50;;;2.20;;
70532;SDS011;58088;51.186;17.130;2023-03-14T04:15:26;6.50;;;2.50;;
70532;SDS011;58088;51.186;17.130;2023-03-14T04:17:56;6.40;;;2.40;;
70532;SDS011;58088;51.186;17.130;2023-03-14T04:20:24;5.40;;;2.00;;
70532;SDS011;58088;51.186;17.130;2023-03-14T04:22:51;6.60;;;2.40;;
70532;SDS011;58088;51.186;17.130;2023-03-14T04:25:17;5.60;;;2.50;;
70532;SDS011;58088;51.186;17.130;2023-03-14T04:27:50;6.40;;;2.30;;
70532;SDS011;58088;51.186;17.130;2023-03-14T04:30:22;4.00;;;1.50;;
70532;SDS011;58088;51.186;17.130;2023-03-14T04:32:58;5.60;;;2.20;;
70532;SDS011;58088;51.186;17.130;2023-03-14T04:35:26;5.30;;;1.80;;
70532;SDS011;58088;51.186;17.130;2023-03-14T04:37:58;6.50;;;2.20;;
70532;SDS011;58088;51.186;17.130;2023-03-14T04:40:25;6.40;;;1.70;;
70532;SDS011;58088;51.186;17.130;2023-03-14T04:42:55;5.40;;;2.40;;
70532;SDS011;58088;51.186;17.130;2023-03-14T04:45:22;6.80;;;2.20;;
70532;SDS011;58088;51.186;17.130;2023-03-14T04:47:49;6.80;;;2.20;;
70532;SDS011;58088;51.186;17.130;2023-03-14T04:50:18;6.20;;;2.40;;
70532;SDS011;58088;51.186;17.130;2023-03-14T04:52:45;8.70;;;2.80;;
70532;SDS011;58088;51.186;17.130;2023-03-14T04:55:11;4.20;;;2.00;;
70532;SDS011;58088;51.186;17.130;2023-03-14T04:57:38;5.40;;;2.00;;
70532;SDS011;58088;51.186;17.130;2023-03-14T05:00:08;5.40;;;2.10;;
70532;SDS011;58088;51.186;17.130;2023-03-14T05:03:00;5.60;;;2.40;;
70532;SDS011;58088;51.186;17.130;2023-03-14T05:05:46;4.50;;;2.10;;
70532;SDS011;58088;51.186;17.130;2023-03-14T05:08:34;4.90;;;2.20;;
70532;SDS011;58088;51.186;17.130;2023-03-14T05:11:20;6.20;;;2.10;;
70532;SDS011;58088;51.186;17.130;2023-03-14T05:13:57;6.70;;;1.90;;
70532;SDS011;58088;51.186;17.130;2023-03-14T05:16:42;4.80;;;2.00;;
70532;SDS011;58088;51.186;17.130;2023-03-14T05:19:21;4.70;;;2.00;;
70532;SDS011;58088;51.186;17.130;2023-03-14T05:22:06;4.90;;;2.00;;
70532;SDS011;58088;51.186;17.130;2023-03-14T05:24:59;5.60;;;2.20;;
70532;SDS011;58088;51.186;17.130;2023-03-14T05:27:37;6.30;;;2.40;;
70532;SDS011;58088;51.186;17.130;2023-03-14T05:30:39;4.10;;;1.50;;
70532;SDS011;58088;51.186;17.130;2023-03-14T05:33:31;6.20;;;2.00;;
70532;SDS011;58088;51.186;17.130;2023-03-14T05:36:24;5.30;;;2.20;;
70532;SDS011;58088;51.186;17.130;2023-03-14T05:39:09;5.20;;;2.30;;
70532;SDS011;58088;51.186;17.130;2023-03-14T05:41:54;6.10;;;2.60;;
70532;SDS011;58088;51.186;17.130;2023-03-14T05:44:34;6.10;;;2.20;;
70532;SDS011;58088;51.186;17.130;2023-03-14T05:47:21;5.50;;;2.30;;
70532;SDS011;58088;51.186;17.130;2023-03-14T05:50:12;6.30;;;2.60;;
70532;SDS011;58088;51.186;17.130;2023-03-14T05:53:02;5.70;;;2.30;;
70532;SDS011;58088;51.186;17.130;2023-03-14T05:55:28;7.50;;;2.30;;
70532;SDS011;58088;51.186;17.130;2023-03-14T05:58:03;4.70;;;2.20;;
70532;SDS011;58088;51.186;17.130;2023-03-14T06:00:43;6.20;;;2.80;;
70532;SDS011;58088;51.186;17.130;2023-03-14T06:03:18;5.40;;;2.40;;
70532;SDS011;58088;51.186;17.130;2023-03-14T06:05:44;6.60;;;2.80;;
70532;SDS011;58088;51.186;17.130;2023-03-14T06:08:11;5.80;;;2.20;;
70532;SDS011;58088;51.186;17.130;2023-03-14T06:10:38;5.80;;;2.50;;
70532;SDS011;58088;51.186;17.130;2023-03-14T06:13:09;5.50;;;2.10;;
70532;SDS011;58088;51.186;17.130;2023-03-14T06:15:39;7.80;;;2.90;;
70532;SDS011;58088;51.186;17.130;2023-03-14T06:18:07;6.20;;;2.80;;
70532;SDS011;58088;51.186;17.130;2023-03-14T06:20:37;7.00;;;2.50;;
70532;SDS011;58088;51.186;17.130;2023-03-14T06:23:09;8.40;;;2.80;;
70532;SDS011;58088;51.186;17.130;2023-03-14T06:25:36;10.20;;;2.70;;
70532;SDS011;58088;51.186;17.130;2023-03-14T06:28:03;7.90;;;2.70;;
70532;SDS011;58088;51.186;17.130;2023-03-14T06:30:30;6.40;;;2.70;;
70532;SDS011;58088;51.186;17.130;2023-03-14T06:32:56;8.10;;;3.00;;
70532;SDS011;58088;51.186;17.130;2023-03-14T06:35:23;7.10;;;2.60;;
70532;SDS011;58088;51.186;17.130;2023-03-14T06:37:49;7.40;;;2.80;;
70532;SDS011;58088;51.186;17.130;2023-03-14T06:40:17;7.00;;;2.90;;
70532;SDS011;58088;51.186;17.130;2023-03-14T06:42:50;7.40;;;3.00;;
70532;SDS011;58088;51.186;17.130;2023-03-14T06:45:17;7.60;;;3.10;;
70532;SDS011;58088;51.186;17.130;2023-03-14T06:47:44;7.40;;;2.80;;
70532;SDS011;58088;51.186;17.130;2023-03-14T06:50:10;7.90;;;3.20;;
70532;SDS011;58088;51.186;17.130;2023-03-14T06:52:37;6.90;;;2.90;;
70532;SDS011;58088;51.186;17.130;2023-03-14T06:55:07;7.90;;;2.90;;
70532;SDS011;58088;51.186;17.130;2023-03-14T06:57:35;6.40;;;3.00;;
70532;SDS011;58088;51.186;17.130;2023-03-14T07:00:03;8.60;;;3.20;;
70532;SDS011;58088;51.186;17.130;2023-03-14T07:02:30;8.60;;;3.30;;
70532;SDS011;58088;51.186;17.130;2023-03-14T07:04:57;7.10;;;3.30;;
70532;SDS011;58088;51.186;17.130;2023-03-14T07:07:23;7.50;;;3.40;;
70532;SDS011;58088;51.186;17.130;2023-03-14T07:09:49;7.90;;;3.20;;
70532;SDS011;58088;51.186;17.130;2023-03-14T07:12:16;8.40;;;3.20;;
70532;SDS011;58088;51.186;17.130;2023-03-14T07:14:42;8.20;;;3.40;;
70532;SDS011;58088;51.186;17.130;2023-03-14T07:17:08;6.70;;;3.10;;
70532;SDS011;58088;51.186;17.130;2023-03-14T07:19:35;8.10;;;2.90;;
70532;SDS011;58088;51.186;17.130;2023-03-14T07:22:01;6.30;;;2.50;;
70532;SDS011;58088;51.186;17.130;2023-03-14T07:24:27;6.10;;;2.70;;
70532;SDS011;58088;51.186;17.130;2023-03-14T07:26:54;6.30;;;2.50;;
70532;SDS011;58088;51.186;17.130;2023-03-14T07:29:20;5.90;;;2.40;;
70532;SDS011;58088;51.186;17.130;2023-03-14T07:31:47;7.60;;;2.80;;
70532;SDS011;58088;51.186;17.130;2023-03-14T07:34:16;7.20;;;3.00;;
70532;SDS011;58088;51.186;17.130;2023-03-14T07:36:42;8.10;;;2.70;;
70532;SDS011;58088;51.186;17.130;2023-03-14T07:39:09;7.00;;;2.80;;
70532;SDS011;58088;51.186;17.130;2023-03-14T07:41:59;6.30;;;2.20;;
70532;SDS011;58088;51.186;17.130;2023-03-14T07:44:37;7.70;;;2.70;;
70532;SDS011;58088;51.186;17.130;2023-03-14T07:47:04;7.60;;;3.00;;
70532;SDS011;58088;51.186;17.130;2023-03-14T07:49:30;7.70;;;2.80;;
70532;SDS011;58088;51.186;17.130;2023-03-14T07:51:58;6.80;;;3.10;;
70532;SDS011;58088;51.186;17.130;2023-03-14T07:54:25;7.60;;;3.50;;
70532;SDS011;58088;51.186;17.130;2023-03-14T07:56:51;7.30;;;3.10;;
70532;SDS011;58088;51.186;17.130;2023-03-14T07:59:18;8.60;;;3.10;;
70532;SDS011;58088;51.186;17.130;2023-03-14T08:01:45;6.80;;;2.80;;
70532;SDS011;58088;51.186;17.130;2023-03-14T08:04:13;6.40;;;2.50;;
70532;SDS011;58088;51.186;17.130;2023-03-14T08:06:40;6.70;;;2.70;;
70532;SDS011;58088;51.186;17.130;2023-03-14T08:09:06;8.30;;;2.70;;
70532;SDS011;58088;51.186;17.130;2023-03-14T08:11:33;7.00;;;2.80;;
70532;SDS011;58088;51.186;17.130;2023-03-14T08:13:59;8.20;;;2.90;;
70532;SDS011;58088;51.186;17.130;2023-03-14T08:16:26;6.80;;;3.00;;
70532;SDS011;58088;51.186;17.130;2023-03-14T08:18:52;7.10;;;2.90;;
70532;SDS011;58088;51.186;17.130;2023-03-14T08:21:18;5.30;;;2.00;;
70532;SDS011;58088;51.186;17.130;2023-03-14T08:23:45;8.00;;;2.70;;
70532;SDS011;58088;51.186;17.130;2023-03-14T08:26:11;7.20;;;3.00;;
70532;SDS011;58088;51.186;17.130;2023-03-14T08:28:38;8.90;;;3.20;;
70532;SDS011;58088;51.186;17.130;2023-03-14T08:31:04;8.10;;;3.20;;
70532;SDS011;58088;51.186;17.130;2023-03-14T08:33:31;8.00;;;2.90;;
70532;SDS011;58088;51.186;17.130;2023-03-14T08:35:59;8.90;;;3.20;;
70532;SDS011;58088;51.186;17.130;2023-03-14T08:38:27;8.50;;;3.50;;
70532;SDS011;58088;51.186;17.130;2023-03-14T08:40:58;7.20;;;3.10;;
70532;SDS011;58088;51.186;17.130;2023-03-14T08:43:26;8.50;;;2.90;;
70532;SDS011;58088;51.186;17.130;2023-03-14T08:45:53;7.70;;;2.90;;
70532;SDS011;58088;51.186;17.130;2023-03-14T08:48:23;7.70;;;3.10;;
70532;SDS011;58088;51.186;17.130;2023-03-14T08:50:49;7.90;;;3.00;;
70532;SDS011;58088;51.186;17.130;2023-03-14T08:53:17;7.50;;;3.20;;
70532;SDS011;58088;51.186;17.130;2023-03-14T08:55:46;7.80;;;2.80;;
70532;SDS011;58088;51.186;17.130;2023-03-14T08:58:20;7.90;;;2.80;;
70532;SDS011;58088;51.186;17.130;2023-03-14T09:00:47;6.40;;;3.00;;
70532;SDS011;58088;51.186;17.130;2023-03-14T09:03:14;7.70;;;3.30;;
70532;SDS011;58088;51.186;17.130;2023-03-14T09:05:40;8.00;;;3.70;;
70532;SDS011;58088;51.186;17.130;2023-03-14T09:08:26;8.40;;;3.20;;
70532;SDS011;58088;51.186;17.130;2023-03-14T09:11:13;9.20;;;3.50;;
70532;SDS011;58088;51.186;17.130;2023-03-14T09:13:59;6.80;;;2.80;;
70532;SDS011;58088;51.186;17.130;2023-03-14T09:16:45;8.80;;;3.30;;
70532;SDS011;58088;51.186;17.130;2023-03-14T09:19:11;6.90;;;2.80;;
70532;SDS011;58088;51.186;17.130;2023-03-14T09:21:38;8.40;;;3.20;;
70532;SDS011;58088;51.186;17.130;2023-03-14T09:24:05;9.90;;;4.00;;
70532;SDS011;58088;51.186;17.130;2023-03-14T09:26:32;8.60;;;3.60;;
70532;SDS011;58088;51.186;17.130;2023-03-14T09:28:59;12.10;;;3.80;;
70532;SDS011;58088;51.186;17.130;2023-03-14T09:31:25;6.60;;;2.40;;
70532;SDS011;58088;51.186;17.130;2023-03-14T09:33:51;7.90;;;3.00;;
70532;SDS011;58088;51.186;17.130;2023-03-14T09:36:17;9.20;;;3.80;;
70532;SDS011;58088;51.186;17.130;2023-03-14T09:38:43;7.50;;;4.00;;
70532;SDS011;58088;51.186;17.130;2023-03-14T09:41:25;9.00;;;3.60;;
70532;SDS011;58088;51.186;17.130;2023-03-14T09:44:02;7.10;;;3.00;;
70532;SDS011;58088;51.186;17.130;2023-03-14T09:46:35;8.50;;;3.60;;
70532;SDS011;58088;51.186;17.130;2023-03-14T09:49:20;7.20;;;3.50;;
70532;SDS011;58088;51.186;17.130;2023-03-14T09:51:53;9.90;;;3.80;;
70532;SDS011;58088;51.186;17.130;2023-03-14T09:54:31;8.50;;;3.80;;
70532;SDS011;58088;51.186;17.130;2023-03-14T09:57:04;9.80;;;3.30;;
70532;SDS011;58088;51.186;17.130;2023-03-14T09:59:33;8.10;;;3.40;;
70532;SDS011;58088;51.186;17.130;2023-03-14T10:02:13;7.90;;;2.90;;
70532;SDS011;58088;51.186;17.130;2023-03-14T10:04:45;8.00;;;2.90;;
70532;SDS011;58088;51.186;17.130;2023-03-14T10:07:18;8.30;;;2.70;;
70532;SDS011;58088;51.186;17.130;2023-03-14T10:09:51;7.00;;;3.00;;
70532;SDS011;58088;51.186;17.130;2023-03-14T10:12:19;6.60;;;2.90;;
70532;SDS011;58088;51.186;17.130;2023-03-14T10:14:55;6.30;;;2.50;;
70532;SDS011;58088;51.186;17.130;2023-03-14T10:17:21;7.00;;;2.60;;
70532;SDS011;58088;51.186;17.130;2023-03-14T10:19:59;8.90;;;3.10;;
70532;SDS011;58088;51.186;17.130;2023-03-14T10:22:29;5.70;;;2.70;;
70532;SDS011;58088;51.186;17.130;2023-03-14T10:25:05;6.10;;;2.60;;
70532;SDS011;58088;51.186;17.130;2023-03-14T10:27:35;9.40;;;3.20;;
70532;SDS011;58088;51.186;17.130;2023-03-14T10:30:05;6.50;;;3.00;;
70532;SDS011;58088;51.186;17.130;2023-03-14T10:32:36;6.40;;;2.80;;
70532;SDS011;58088;51.186;17.130;2023-03-14T10:35:18;6.90;;;2.90;;
70532;SDS011;58088;51.186;17.130;2023-03-14T10:40:30;8.20;;;4.10;;
70532;SDS011;58088;51.186;17.130;2023-03-14T10:42:59;7.10;;;3.10;;
70532;SDS011;58088;51.186;17.130;2023-03-14T10:45:38;7.80;;;3.20;;
70532;SDS011;58088;51.186;17.130;2023-03-14T10:48:31;8.50;;;3.90;;
70532;SDS011;58088;51.186;17.130;2023-03-14T10:53:45;7.50;;;3.60;;
70532;SDS011;58088;51.186;17.130;2023-03-14T10:56:15;9.60;;;3.90;;
70532;SDS011;58088;51.186;17.130;2023-03-14T10:58:49;7.00;;;3.30;;
70532;SDS011;58088;51.186;17.130;2023-03-14T11:01:25;8.60;;;3.40;;
70532;SDS011;58088;51.186;17.130;2023-03-14T11:13:00;10.30;;;3.40;;
70532;SDS011;58088;51.186;17.130;2023-03-14T11:29:07;10.70;;;2.90;;
70532;SDS011;58088;51.186;17.130;2023-03-14T11:31:55;7.90;;;2.60;;
70532;SDS011;58088;51.186;17.130;2023-03-14T11:34:44;6.70;;;2.80;;
70532;SDS011;58088;51.186;17.130;2023-03-14T11:37:33;8.30;;;3.30;;
70532;SDS011;58088;51.186;17.130;2023-03-14T11:40:18;7.90;;;2.80;;
70532;SDS011;58088;51.186;17.130;2023-03-14T11:42:55;8.40;;;3.60;;
70532;SDS011;58088;51.186;17.130;2023-03-14T11:45:37;8.40;;;3.50;;
70532;SDS011;58088;51.186;17.130;2023-03-14T11:48:24;5.60;;;2.50;;
70532;SDS011;58088;51.186;17.130;2023-03-14T11:51:02;9.40;;;3.10;;
70532;SDS011;58088;51.186;17.130;2023-03-14T11:53:42;7.30;;;2.80;;
70532;SDS011;58088;51.186;17.130;2023-03-14T11:56:36;5.90;;;2.40;;
70532;SDS011;58088;51.186;17.130;2023-03-14T12:02:05;5.70;;;2.30;;
70532;SDS011;58088;51.186;17.130;2023-03-14T12:04:53;4.70;;;2.10;;
70532;SDS011;58088;51.186;17.130;2023-03-14T12:07:34;5.50;;;1.90;;
70532;SDS011;58088;51.186;17.130;2023-03-14T12:10:10;5.00;;;2.00;;
70532;SDS011;58088;51.186;17.130;2023-03-14T12:12:36;6.90;;;1.80;;
70532;SDS011;58088;51.186;17.130;2023-03-14T12:15:05;4.80;;;2.10;;
70532;SDS011;58088;51.186;17.130;2023-03-14T12:17:43;6.10;;;2.10;;
70532;SDS011;58088;51.186;17.130;2023-03-14T12:20:20;5.70;;;1.90;;
70532;SDS011;58088;51.186;17.130;2023-03-14T12:22:53;5.40;;;2.40;;
70532;SDS011;58088;51.186;17.130;2023-03-14T12:25:24;4.70;;;2.10;;
70532;SDS011;58088;51.186;17.130;2023-03-14T12:30:39;7.80;;;2.90;;
70532;SDS011;58088;51.186;17.130;2023-03-14T12:38:18;5.90;;;2.70;;
70532;SDS011;58088;51.186;17.130;2023-03-14T12:43:46;8.20;;;2.90;;
70532;SDS011;58088;51.186;17.130;2023-03-14T12:46:20;6.10;;;2.70;;
70532;SDS011;58088;51.186;17.130;2023-03-14T12:49:09;5.90;;;2.20;;
70532;SDS011;58088;51.186;17.130;2023-03-14T12:51:38;7.40;;;2.70;;
70532;SDS011;58088;51.186;17.130;2023-03-14T12:59:58;6.20;;;2.80;;
70532;SDS011;58088;51.186;17.130;2023-03-14T13:02:43;6.20;;;2.60;;
70532;SDS011;58088;51.186;17.130;2023-03-14T13:05:13;7.50;;;2.90;;
70532;SDS011;58088;51.186;17.130;2023-03-14T13:10:21;5.80;;;3.20;;
70532;SDS011;58088;51.186;17.130;2023-03-14T13:13:16;6.40;;;3.30;;
70532;SDS011;58088;51.186;17.130;2023-03-14T13:15:49;6.10;;;2.90;;
70532;SDS011;58088;51.186;17.130;2023-03-14T13:18:44;6.90;;;2.20;;
70532;SDS011;58088;51.186;17.130;2023-03-14T13:24:04;6.90;;;3.30;;
70532;SDS011;58088;51.186;17.130;2023-03-14T13:26:40;6.70;;;3.00;;
70532;SDS011;58088;51.186;17.130;2023-03-14T13:29:29;6.80;;;3.30;;
70532;SDS011;58088;51.186;17.130;2023-03-14T13:32:12;7.50;;;3.10;;
70532;SDS011;58088;51.186;17.130;2023-03-14T13:34:44;4.80;;;2.10;;
70532;SDS011;58088;51.186;17.130;2023-03-14T13:37:30;6.10;;;3.00;;
70532;SDS011;58088;51.186;17.130;2023-03-14T13:39:57;6.20;;;2.90;;
70532;SDS011;58088;51.186;17.130;2023-03-14T13:42:29;5.40;;;2.50;;
70532;SDS011;58088;51.186;17.130;2023-03-14T13:44:56;6.10;;;2.50;;
70532;SDS011;58088;51.186;17.130;2023-03-14T13:47:25;5.60;;;2.70;;
70532;SDS011;58088;51.186;17.130;2023-03-14T13:49:53;6.70;;;2.80;;
70532;SDS011;58088;51.186;17.130;2023-03-14T13:52:32;7.20;;;3.00;;
70532;SDS011;58088;51.186;17.130;2023-03-14T13:55:03;6.40;;;2.90;;
70532;SDS011;58088;51.186;17.130;2023-03-14T14:00:25;5.90;;;2.30;;
70532;SDS011;58088;51.186;17.130;2023-03-14T14:03:02;5.00;;;2.20;;
70532;SDS011;58088;51.186;17.130;2023-03-14T14:05:29;6.40;;;2.90;;
70532;SDS011;58088;51.186;17.130;2023-03-14T14:07:57;6.10;;;3.00;;
70532;SDS011;58088;51.186;17.130;2023-03-14T14:10:26;6.30;;;2.90;;
70532;SDS011;58088;51.186;17.130;2023-03-14T14:12:59;7.80;;;2.70;;
70532;SDS011;58088;51.186;17.130;2023-03-14T14:15:31;6.60;;;2.60;;
70532;SDS011;58088;51.186;17.130;2023-03-14T14:18:07;6.70;;;2.80;;
70532;SDS011;58088;51.186;17.130;2023-03-14T14:20:41;6.40;;;2.90;;
70532;SDS011;58088;51.186;17.130;2023-03-14T14:23:18;7.00;;;2.70;;
70532;SDS011;58088;51.186;17.130;2023-03-14T14:25:52;6.80;;;2.70;;
70532;SDS011;58088;51.186;17.130;2023-03-14T14:28:32;6.10;;;2.60;;
70532;SDS011;58088;51.186;17.130;2023-03-14T14:31:21;7.50;;;3.40;;
70532;SDS011;58088;51.186;17.130;2023-03-14T14:34:02;6.20;;;2.30;;
70532;SDS011;58088;51.186;17.130;2023-03-14T14:36:36;6.30;;;2.80;;
70532;SDS011;58088;51.186;17.130;2023-03-14T14:39:24;6.60;;;3.00;;
70532;SDS011;58088;51.186;17.130;2023-03-14T14:41:52;7.00;;;2.70;;
70532;SDS011;58088;51.186;17.130;2023-03-14T14:44:32;7.10;;;3.20;;
70532;SDS011;58088;51.186;17.130;2023-03-14T14:47:02;7.30;;;3.10;;
70532;SDS011;58088;51.186;17.130;2023-03-14T14:49:31;6.20;;;2.70;;
70532;SDS011;58088;51.186;17.130;2023-03-14T14:52:05;6.80;;;3.00;;
70532;SDS011;58088;51.186;17.130;2023-03-14T14:54:52;6.00;;;2.60;;
70532;SDS011;58088;51.186;17.130;2023-03-14T15:00:01;7.70;;;3.30;;
70532;SDS011;58088;51.186;17.130;2023-03-14T15:02:40;6.60;;;3.10;;
70532;SDS011;58088;51.186;17.130;2023-03-14T15:05:20;7.50;;;3.10;;
70532;SDS011;58088;51.186;17.130;2023-03-14T15:07:50;5.90;;;2.50;;
70532;SDS011;58088;51.186;17.130;2023-03-14T15:10:19;6.50;;;3.20;;
70532;SDS011;58088;51.186;17.130;2023-03-14T15:12:48;7.00;;;3.40;;
70532;SDS011;58088;51.186;17.130;2023-03-14T15:15:16;7.00;;;3.20;;
70532;SDS011;58088;51.186;17.130;2023-03-14T15:17:43;9.70;;;3.70;;
70532;SDS011;58088;51.186;17.130;2023-03-14T15:20:16;8.00;;;3.10;;
70532;SDS011;58088;51.186;17.130;2023-03-14T15:22:44;7.40;;;2.90;;
70532;SDS011;58088;51.186;17.130;2023-03-14T15:25:10;9.90;;;4.00;;
70532;SDS011;58088;51.186;17.130;2023-03-14T15:27:38;8.50;;;3.20;;
70532;SDS011;58088;51.186;17.130;2023-03-14T15:30:13;8.10;;;4.10;;
70532;SDS011;58088;51.186;17.130;2023-03-14T15:32:41;8.30;;;3.80;;
70532;SDS011;58088;51.186;17.130;2023-03-14T15:35:08;8.40;;;3.50;;
70532;SDS011;58088;51.186;17.130;2023-03-14T15:37:35;7.90;;;4.20;;
70532;SDS011;58088;51.186;17.130;2023-03-14T15:40:04;11.20;;;3.90;;
70532;SDS011;58088;51.186;17.130;2023-03-14T15:42:37;8.20;;;3.50;;
70532;SDS011;58088;51.186;17.130;2023-03-14T15:45:04;8.20;;;3.90;;
70532;SDS011;58088;51.186;17.130;2023-03-14T15:47:31;7.30;;;3.40;;
70532;SDS011;58088;51.186;17.130;2023-03-14T15:49:58;6.70;;;3.20;;
70532;SDS011;58088;51.186;17.130;2023-03-14T15:52:24;7.60;;;3.70;;
70532;SDS011;58088;51.186;17.130;2023-03-14T15:54:51;8.50;;;3.20;;
70532;SDS011;58088;51.186;17.130;2023-03-14T15:57:17;8.60;;;3.60;;
70532;SDS011;58088;51.186;17.130;2023-03-14T15:59:43;6.90;;;2.50;;
70532;SDS011;58088;51.186;17.130;2023-03-14T16:02:09;7.40;;;3.10;;
70532;SDS011;58088;51.186;17.130;2023-03-14T16:04:36;7.80;;;3.00;;
70532;SDS011;58088;51.186;17.130;2023-03-14T16:07:02;7.40;;;3.00;;